sensor_id;sensor_type;location;lat;lon;timestamp;pressure;altitude;pressure_sealevel;temperature;humidity
6349;BME280;3207;42.648;23.406;2022-11-09T00:01:21;100272.41;;;12.19;84.03
6349;BME280;3207;42.648;23.406;2022-11-09T00:03:53;100276.84;;;12.18;83.32
6349;BME280;3207;42.648;23.406;2022-11-09T00:06:22;100273.38;;;12.18;83.91
6349;BME280;3207;42.648;23.406;2022-11-09T00:08:49;100268.47;;;12.13;84.46
6349;BME280;3207;42.648;23.406;2022-11-09T00:11:17;100284.06;;;12.03;84.68
6349;BME280;3207;42.648;23.406;2022-11-09T00:13:44;100285.09;;;12.01;84.25
6349;BME280;3207;42.648;23.406;2022-11-09T00:16:13;100282.59;;;11.99;83.69
6349;BME280;3207;42.648;23.406;2022-11-09T00:18:40;100287.00;;;11.99;84.49
6349;BME280;3207;42.648;23.406;2022-11-09T00:21:13;100266.72;;;11.90;84.88
6349;BME280;3207;42.648;23.406;2022-11-09T00:23:42;100284.13;;;11.91;84.58
6349;BME280;3207;42.648;23.406;2022-11-09T00:26:11;100284.13;;;11.91;84.70
6349;BME280;3207;42.648;23.406;2022-11-09T00:28:38;100284.81;;;11.82;84.98
6349;BME280;3207;42.648;23.406;2022-11-09T00:31:07;100275.69;;;11.74;84.81
6349;BME280;3207;42.648;23.406;2022-11-09T00:33:34;100284.44;;;11.75;84.93
6349;BME280;3207;42.648;23.406;2022-11-09T00:36:03;100279.38;;;11.72;85.65
6349;BME280;3207;42.648;23.406;2022-11-09T00:38:33;100282.81;;;11.72;85.80
6349;BME280;3207;42.648;23.406;2022-11-09T00:41:02;100278.53;;;11.71;86.27
6349;BME280;3207;42.648;23.406;2022-11-09T00:43:29;100274.97;;;11.72;86.04
6349;BME280;3207;42.648;23.406;2022-11-09T00:45:56;100281.03;;;11.73;86.36
6349;BME280;3207;42.648;23.406;2022-11-09T00:48:23;100275.91;;;11.71;85.80
6349;BME280;3207;42.648;23.406;2022-11-09T00:50:50;100278.53;;;11.71;86.17
6349;BME280;3207;42.648;23.406;2022-11-09T00:53:17;100283.88;;;11.70;85.91
6349;BME280;3207;42.648;23.406;2022-11-09T00:55:52;100270.41;;;11.63;85.98
6349;BME280;3207;42.648;23.406;2022-11-09T00:58:21;100279.59;;;11.69;85.97
6349;BME280;3207;42.648;23.406;2022-11-09T01:00:48;100274.34;;;11.69;85.92
6349;BME280;3207;42.648;23.406;2022-11-09T01:03:15;100273.63;;;11.67;86.21
6349;BME280;3207;42.648;23.406;2022-11-09T01:05:42;100277.31;;;11.64;85.16
6349;BME280;3207;42.648;23.406;2022-11-09T01:08:09;100272.19;;;11.63;85.71
6349;BME280;3207;42.648;23.406;2022-11-09T01:10:39;100274.19;;;11.59;85.12
6349;BME280;3207;42.648;23.406;2022-11-09T01:13:07;100262.50;;;11.52;85.35
6349;BME280;3207;42.648;23.406;2022-11-09T01:15:39;100267.63;;;11.54;85.00
6349;BME280;3207;42.648;23.406;2022-11-09T01:18:06;100269.09;;;11.45;85.53
6349;BME280;3207;42.648;23.406;2022-11-09T01:20:33;100257.94;;;11.43;85.78
6349;BME280;3207;42.648;23.406;2022-11-09T01:23:00;100256.38;;;11.41;85.82
6349;BME280;3207;42.648;23.406;2022-11-09T01:25:27;100259.28;;;11.36;85.77
6349;BME280;3207;42.648;23.406;2022-11-09T01:27:53;100254.41;;;11.31;86.62
6349;BME280;3207;42.648;23.406;2022-11-09T01:30:20;100257.44;;;11.25;86.83
6349;BME280;3207;42.648;23.406;2022-11-09T01:32:49;100256.72;;;11.23;87.02
6349;BME280;3207;42.648;23.406;2022-11-09T01:35:16;100254.94;;;11.24;86.68
6349;BME280;3207;42.648;23.406;2022-11-09T01:37:42;100260.41;;;11.21;87.79
6349;BME280;3207;42.648;23.406;2022-11-09T01:40:10;100256.13;;;11.20;86.83
6349;BME280;3207;42.648;23.406;2022-11-09T01:42:37;100252.56;;;11.21;86.85
6349;BME280;3207;42.648;23.406;2022-11-09T01:45:23;100255.19;;;11.21;87.56
6349;BME280;3207;42.648;23.406;2022-11-09T01:47:55;100254.44;;;11.19;86.94
6349;BME280;3207;42.648;23.406;2022-11-09T01:50:34;100254.53;;;11.17;87.30
6349;BME280;3207;42.648;23.406;2022-11-09T01:53:03;100259.88;;;11.16;87.40
6349;BME280;3207;42.648;23.406;2022-11-09T01:55:31;100252.13;;;11.14;87.40
6349;BME280;3207;42.648;23.406;2022-11-09T01:58:10;100254.06;;;11.12;87.29
6349;BME280;3207;42.648;23.406;2022-11-09T02:00:41;100253.22;;;11.12;87.39
6349;BME280;3207;42.648;23.406;2022-11-09T02:03:13;100253.44;;;11.09;87.38
6349;BME280;3207;42.648;23.406;2022-11-09T02:05:41;100254.56;;;11.05;86.90
6349;BME280;3207;42.648;23.406;2022-11-09T02:08:11;100250.28;;;11.04;87.05
6349;BME280;3207;42.648;23.406;2022-11-09T02:10:44;100251.13;;;11.04;87.43
6349;BME280;3207;42.648;23.406;2022-11-09T02:13:15;100245.06;;;11.04;87.86
6349;BME280;3207;42.648;23.406;2022-11-09T02:15:46;100251.13;;;11.04;87.07
6349;BME280;3207;42.648;23.406;2022-11-09T02:18:16;100244.13;;;11.05;87.34
6349;BME280;3207;42.648;23.406;2022-11-09T02:20:46;100251.22;;;11.02;87.23
6349;BME280;3207;42.648;23.406;2022-11-09T02:23:14;100240.06;;;11.00;87.96
6349;BME280;3207;42.648;23.406;2022-11-09T02:25:43;100241.94;;;10.98;87.98
6349;BME280;3207;42.648;23.406;2022-11-09T02:28:11;100245.50;;;10.97;87.83
6349;BME280;3207;42.648;23.406;2022-11-09T02:30:39;100238.59;;;10.96;87.73
6349;BME280;3207;42.648;23.406;2022-11-09T02:33:06;100240.38;;;10.96;88.58
6349;BME280;3207;42.648;23.406;2022-11-09T02:35:33;100244.66;;;10.97;87.55
6349;BME280;3207;42.648;23.406;2022-11-09T02:38:01;100243.00;;;10.96;87.99
6349;BME280;3207;42.648;23.406;2022-11-09T02:40:31;100249.16;;;10.95;88.39
6349;BME280;3207;42.648;23.406;2022-11-09T02:43:01;100244.03;;;10.93;87.42
6349;BME280;3207;42.648;23.406;2022-11-09T02:45:28;100242.34;;;10.92;87.71
6349;BME280;3207;42.648;23.406;2022-11-09T02:47:55;100236.44;;;10.90;87.40
6349;BME280;3207;42.648;23.406;2022-11-09T02:50:21;100227.56;;;10.80;87.74
6349;BME280;3207;42.648;23.406;2022-11-09T02:52:48;100247.50;;;10.81;87.45
6349;BME280;3207;42.648;23.406;2022-11-09T02:55:16;100239.66;;;10.81;87.57
6349;BME280;3207;42.648;23.406;2022-11-09T02:57:43;100246.47;;;10.71;87.21
6349;BME280;3207;42.648;23.406;2022-11-09T03:00:10;100241.47;;;10.68;86.87
6349;BME280;3207;42.648;23.406;2022-11-09T03:02:37;100241.47;;;10.68;87.59
6349;BME280;3207;42.648;23.406;2022-11-09T03:05:05;100244.78;;;10.70;88.07
6349;BME280;3207;42.648;23.406;2022-11-09T03:07:32;100242.19;;;10.70;87.72
6349;BME280;3207;42.648;23.406;2022-11-09T03:09:59;100247.41;;;10.70;87.65
6349;BME280;3207;42.648;23.406;2022-11-09T03:12:27;100238.63;;;10.71;87.79
6349;BME280;3207;42.648;23.406;2022-11-09T03:14:57;100239.56;;;10.70;88.48
6349;BME280;3207;42.648;23.406;2022-11-09T03:17:24;100235.31;;;10.69;88.50
6349;BME280;3207;42.648;23.406;2022-11-09T03:19:51;100221.72;;;10.64;88.05
6349;BME280;3207;42.648;23.406;2022-11-09T03:22:18;100240.31;;;10.72;88.54
6349;BME280;3207;42.648;23.406;2022-11-09T03:24:45;100230.91;;;10.70;88.66
6349;BME280;3207;42.648;23.406;2022-11-09T03:27:12;100231.97;;;10.67;87.86
6349;BME280;3207;42.648;23.406;2022-11-09T03:29:40;100236.25;;;10.68;88.23
6349;BME280;3207;42.648;23.406;2022-11-09T03:32:07;100226.50;;;10.70;88.00
6349;BME280;3207;42.648;23.406;2022-11-09T03:34:34;100210.22;;;10.54;87.68
6349;BME280;3207;42.648;23.406;2022-11-09T03:37:01;100229.34;;;10.67;87.95
6349;BME280;3207;42.648;23.406;2022-11-09T03:39:28;100224.84;;;10.69;87.84
6349;BME280;3207;42.648;23.406;2022-11-09T03:41:55;100223.38;;;10.65;87.82
6349;BME280;3207;42.648;23.406;2022-11-09T03:44:21;100224.41;;;10.62;87.21
6349;BME280;3207;42.648;23.406;2022-11-09T03:46:49;100218.34;;;10.62;88.25
6349;BME280;3207;42.648;23.406;2022-11-09T03:49:16;100222.66;;;10.63;88.02
6349;BME280;3207;42.648;23.406;2022-11-09T03:51:43;100219.09;;;10.64;88.08
6349;BME280;3207;42.648;23.406;2022-11-09T03:54:10;100216.91;;;10.58;88.96
6349;BME280;3207;42.648;23.406;2022-11-09T03:56:37;100219.41;;;10.59;88.36
6349;BME280;3207;42.648;23.406;2022-11-09T03:59:04;100215.25;;;10.57;88.70
6349;BME280;3207;42.648;23.406;2022-11-09T04:01:31;100218.69;;;10.57;89.08
6349;BME280;3207;42.648;23.406;2022-11-09T04:03:59;100220.22;;;10.60;88.35
6349;BME280;3207;42.648;23.406;2022-11-09T04:06:26;100215.00;;;10.60;88.51
6349;BME280;3207;42.648;23.406;2022-11-09T04:08:53;100222.16;;;10.58;88.24
6349;BME280;3207;42.648;23.406;2022-11-09T04:11:19;100215.00;;;10.60;89.04
6349;BME280;3207;42.648;23.406;2022-11-09T04:13:46;100220.03;;;10.63;88.10
6349;BME280;3207;42.648;23.406;2022-11-09T04:16:13;100229.66;;;10.62;88.43
6349;BME280;3207;42.648;23.406;2022-11-09T04:18:40;100226.94;;;10.64;88.41
6349;BME280;3207;42.648;23.406;2022-11-09T04:21:08;100220.47;;;10.70;87.95
6349;BME280;3207;42.648;23.406;2022-11-09T04:23:34;100208.72;;;10.75;88.89
6349;BME280;3207;42.648;23.406;2022-11-09T04:26:01;100206.75;;;10.79;88.39
6349;BME280;3207;42.648;23.406;2022-11-09T04:28:28;100205.91;;;10.78;88.67
6349;BME280;3207;42.648;23.406;2022-11-09T04:30:59;100210.19;;;10.79;88.42
6349;BME280;3207;42.648;23.406;2022-11-09T04:33:26;100210.78;;;10.83;88.16
6349;BME280;3207;42.648;23.406;2022-11-09T04:35:53;100209.44;;;10.90;88.75
6349;BME280;3207;42.648;23.406;2022-11-09T04:38:21;100185.34;;;10.97;88.88
6349;BME280;3207;42.648;23.406;2022-11-09T04:40:48;100196.09;;;11.06;88.81
6349;BME280;3207;42.648;23.406;2022-11-09T04:43:15;100193.25;;;11.09;88.45
6349;BME280;3207;42.648;23.406;2022-11-09T04:45:42;100181.75;;;11.11;88.44
6349;BME280;3207;42.648;23.406;2022-11-09T04:48:09;100191.38;;;11.11;88.00
6349;BME280;3207;42.648;23.406;2022-11-09T04:50:36;100187.69;;;11.13;87.89
6349;BME280;3207;42.648;23.406;2022-11-09T04:53:05;100193.88;;;11.12;88.31
6349;BME280;3207;42.648;23.406;2022-11-09T04:55:33;100189.59;;;11.11;88.54
6349;BME280;3207;42.648;23.406;2022-11-09T04:58:00;100197.53;;;11.10;87.81
6349;BME280;3207;42.648;23.406;2022-11-09T05:00:27;100185.50;;;11.07;88.23
6349;BME280;3207;42.648;23.406;2022-11-09T05:02:54;100191.50;;;10.96;88.25
6349;BME280;3207;42.648;23.406;2022-11-09T05:05:20;100197.69;;;10.95;88.78
6349;BME280;3207;42.648;23.406;2022-11-09T05:07:47;100194.34;;;10.93;88.49
6349;BME280;3207;42.648;23.406;2022-11-09T05:10:14;100203.97;;;10.93;88.63
6349;BME280;3207;42.648;23.406;2022-11-09T05:12:42;100204.06;;;10.91;89.36
6349;BME280;3207;42.648;23.406;2022-11-09T05:15:10;100206.81;;;10.90;88.81
6349;BME280;3207;42.648;23.406;2022-11-09T05:17:36;100194.69;;;10.89;89.28
6349;BME280;3207;42.648;23.406;2022-11-09T05:20:04;100202.72;;;10.86;89.10
6349;BME280;3207;42.648;23.406;2022-11-09T05:22:31;100201.06;;;10.85;89.40
6349;BME280;3207;42.648;23.406;2022-11-09T05:25:15;100204.22;;;10.77;89.12
6349;BME280;3207;42.648;23.406;2022-11-09T05:27:43;100198.16;;;10.77;89.94
6349;BME280;3207;42.648;23.406;2022-11-09T05:30:10;100206.00;;;10.77;90.13
6349;BME280;3207;42.648;23.406;2022-11-09T05:32:38;100210.41;;;10.76;89.62
6349;BME280;3207;42.648;23.406;2022-11-09T05:35:06;100210.50;;;10.75;89.77
6349;BME280;3207;42.648;23.406;2022-11-09T05:37:32;100201.81;;;10.74;90.00
6349;BME280;3207;42.648;23.406;2022-11-09T05:39:59;100205.28;;;10.75;90.31
6349;BME280;3207;42.648;23.406;2022-11-09T05:42:26;100201.59;;;10.77;90.09
6349;BME280;3207;42.648;23.406;2022-11-09T05:44:54;100211.03;;;10.80;90.15
6349;BME280;3207;42.648;23.406;2022-11-09T05:47:21;100208.06;;;10.84;89.99
6349;BME280;3207;42.648;23.406;2022-11-09T05:49:48;100209.75;;;10.85;90.09
6349;BME280;3207;42.648;23.406;2022-11-09T05:52:15;100214.66;;;10.90;90.43
6349;BME280;3207;42.648;23.406;2022-11-09T05:54:41;100209.81;;;10.96;90.31
6349;BME280;3207;42.648;23.406;2022-11-09T05:57:08;100212.63;;;11.06;89.96
6349;BME280;3207;42.648;23.406;2022-11-09T05:59:35;100199.59;;;11.17;90.63
6349;BME280;3207;42.648;23.406;2022-11-09T06:02:03;100205.00;;;11.27;90.65
6349;BME280;3207;42.648;23.406;2022-11-09T06:04:30;100208.31;;;11.42;89.75
6349;BME280;3207;42.648;23.406;2022-11-09T06:06:56;100223.25;;;11.87;90.11
6349;BME280;3207;42.648;23.406;2022-11-09T06:09:23;100219.47;;;12.60;89.18
6349;BME280;3207;42.648;23.406;2022-11-09T06:11:50;100225.75;;;13.56;87.07
6349;BME280;3207;42.648;23.406;2022-11-09T06:14:17;100223.13;;;14.50;83.22
6349;BME280;3207;42.648;23.406;2022-11-09T06:16:44;100226.28;;;15.24;78.91
6349;BME280;3207;42.648;23.406;2022-11-09T06:19:12;100229.81;;;15.73;75.02
6349;BME280;3207;42.648;23.406;2022-11-09T06:21:39;100228.56;;;15.87;73.50
6349;BME280;3207;42.648;23.406;2022-11-09T06:24:06;100237.53;;;16.03;72.86
6349;BME280;3207;42.648;23.406;2022-11-09T06:26:33;100238.41;;;16.60;71.91
6349;BME280;3207;42.648;23.406;2022-11-09T06:29:00;100246.47;;;17.41;69.34
6349;BME280;3207;42.648;23.406;2022-11-09T06:31:27;100246.28;;;18.57;65.97
6349;BME280;3207;42.648;23.406;2022-11-09T06:33:53;100247.25;;;19.90;61.23
6349;BME280;3207;42.648;23.406;2022-11-09T06:36:22;100248.91;;;20.95;56.56
6349;BME280;3207;42.648;23.406;2022-11-09T06:38:49;100264.19;;;20.93;53.75
6349;BME280;3207;42.648;23.406;2022-11-09T06:41:16;100259.34;;;20.50;53.28
6349;BME280;3207;42.648;23.406;2022-11-09T06:43:43;100260.03;;;19.95;53.53
6349;BME280;3207;42.648;23.406;2022-11-09T06:46:11;100253.13;;;19.35;54.37
6349;BME280;3207;42.648;23.406;2022-11-09T06:48:42;100251.56;;;18.75;55.52
6349;BME280;3207;42.648;23.406;2022-11-09T06:51:09;100249.56;;;18.25;57.02
6349;BME280;3207;42.648;23.406;2022-11-09T06:53:37;100257.63;;;17.80;58.22
6349;BME280;3207;42.648;23.406;2022-11-09T06:56:06;100256.38;;;17.39;59.64
6349;BME280;3207;42.648;23.406;2022-11-09T06:58:34;100254.50;;;17.04;60.71
6349;BME280;3207;42.648;23.406;2022-11-09T07:01:06;100257.41;;;16.73;62.42
6349;BME280;3207;42.648;23.406;2022-11-09T07:03:33;100250.25;;;16.37;63.79
6349;BME280;3207;42.648;23.406;2022-11-09T07:06:03;100253.66;;;16.20;64.76
6349;BME280;3207;42.648;23.406;2022-11-09T07:08:31;100258.91;;;16.20;66.19
6349;BME280;3207;42.648;23.406;2022-11-09T07:11:03;100254.72;;;16.27;66.40
6349;BME280;3207;42.648;23.406;2022-11-09T07:13:30;100263.06;;;16.22;66.36
6349;BME280;3207;42.648;23.406;2022-11-09T07:15:56;100249.19;;;16.10;66.57
6349;BME280;3207;42.648;23.406;2022-11-09T07:18:23;100252.41;;;15.95;67.24
6349;BME280;3207;42.648;23.406;2022-11-09T07:20:50;100252.00;;;15.80;67.87
6349;BME280;3207;42.648;23.406;2022-11-09T07:23:17;100248.13;;;15.65;68.28
6349;BME280;3207;42.648;23.406;2022-11-09T07:25:44;100248.34;;;15.52;68.79
6349;BME280;3207;42.648;23.406;2022-11-09T07:28:12;100253.75;;;15.41;69.52
6349;BME280;3207;42.648;23.406;2022-11-09T07:30:39;100251.09;;;15.31;69.88
6349;BME280;3207;42.648;23.406;2022-11-09T07:33:12;100238.28;;;15.17;70.58
6349;BME280;3207;42.648;23.406;2022-11-09T07:35:39;100244.41;;;15.18;70.64
6349;BME280;3207;42.648;23.406;2022-11-09T07:38:06;100244.13;;;15.11;71.29
6349;BME280;3207;42.648;23.406;2022-11-09T07:40:33;100247.72;;;15.10;71.30
6349;BME280;3207;42.648;23.406;2022-11-09T07:43:01;100253.56;;;15.14;71.92
6349;BME280;3207;42.648;23.406;2022-11-09T07:45:31;100236.94;;;15.23;71.99
6349;BME280;3207;42.648;23.406;2022-11-09T07:47:59;100250.81;;;15.34;72.03
6349;BME280;3207;42.648;23.406;2022-11-09T07:50:27;100249.75;;;15.47;71.29
6349;BME280;3207;42.648;23.406;2022-11-09T07:52:55;100243.81;;;15.54;71.37
6349;BME280;3207;42.648;23.406;2022-11-09T07:55:21;100244.22;;;15.59;70.71
6349;BME280;3207;42.648;23.406;2022-11-09T07:57:53;100246.19;;;15.67;69.04
6349;BME280;3207;42.648;23.406;2022-11-09T08:00:20;100241.88;;;15.76;68.40
6349;BME280;3207;42.648;23.406;2022-11-09T08:02:49;100245.50;;;16.50;68.41
6349;BME280;3207;42.648;23.406;2022-11-09T08:05:15;100247.66;;;18.09;64.32
6349;BME280;3207;42.648;23.406;2022-11-09T08:07:42;100243.88;;;18.97;59.98
6349;BME280;3207;42.648;23.406;2022-11-09T08:10:09;100246.94;;;19.19;57.39
6349;BME280;3207;42.648;23.406;2022-11-09T08:12:36;100242.44;;;19.11;56.70
6349;BME280;3207;42.648;23.406;2022-11-09T08:15:04;100244.22;;;18.94;55.96
6349;BME280;3207;42.648;23.406;2022-11-09T08:17:31;100254.69;;;18.70;56.27
6349;BME280;3207;42.648;23.406;2022-11-09T08:19:59;100244.63;;;18.56;56.63
6349;BME280;3207;42.648;23.406;2022-11-09T08:22:26;100245.72;;;18.63;57.48
6349;BME280;3207;42.648;23.406;2022-11-09T08:24:53;100257.25;;;20.84;53.98
6349;BME280;3207;42.648;23.406;2022-11-09T08:27:20;100257.13;;;22.01;49.45
6349;BME280;3207;42.648;23.406;2022-11-09T08:29:47;100261.91;;;22.73;47.26
6349;BME280;3207;42.648;23.406;2022-11-09T08:32:13;100257.53;;;23.09;45.47
6349;BME280;3207;42.648;23.406;2022-11-09T08:34:40;100251.75;;;22.76;44.78
6349;BME280;3207;42.648;23.406;2022-11-09T08:37:08;100266.09;;;22.23;45.13
6349;BME280;3207;42.648;23.406;2022-11-09T08:39:35;100257.00;;;21.72;45.99
6349;BME280;3207;42.648;23.406;2022-11-09T08:42:02;100256.63;;;21.21;47.01
6349;BME280;3207;42.648;23.406;2022-11-09T08:44:29;100260.78;;;20.76;47.73
6349;BME280;3207;42.648;23.406;2022-11-09T08:46:56;100261.34;;;20.31;48.66
6349;BME280;3207;42.648;23.406;2022-11-09T08:49:22;100258.72;;;19.91;50.06
6349;BME280;3207;42.648;23.406;2022-11-09T08:51:49;100261.47;;;19.57;51.32
6349;BME280;3207;42.648;23.406;2022-11-09T08:54:17;100253.94;;;19.28;52.52
6349;BME280;3207;42.648;23.406;2022-11-09T08:56:44;100247.88;;;19.10;53.34
6349;BME280;3207;42.648;23.406;2022-11-09T08:59:11;100242.88;;;18.98;53.99
6349;BME280;3207;42.648;23.406;2022-11-09T09:01:38;100248.84;;;18.92;54.86
6349;BME280;3207;42.648;23.406;2022-11-09T09:04:04;100242.59;;;20.33;54.11
6349;BME280;3207;42.648;23.406;2022-11-09T09:06:31;100261.81;;;23.25;46.74
6349;BME280;3207;42.648;23.406;2022-11-09T09:08:58;100264.16;;;24.69;42.29
6349;BME280;3207;42.648;23.406;2022-11-09T09:11:26;100261.19;;;26.13;39.13
6349;BME280;3207;42.648;23.406;2022-11-09T09:13:53;100257.91;;;28.84;34.26
6349;BME280;3207;42.648;23.406;2022-11-09T09:16:20;100275.53;;;31.00;30.71
6349;BME280;3207;42.648;23.406;2022-11-09T09:18:47;100278.44;;;31.21;30.00
6349;BME280;3207;42.648;23.406;2022-11-09T09:21:14;100272.00;;;32.46;27.69
6349;BME280;3207;42.648;23.406;2022-11-09T09:23:41;100280.53;;;32.93;26.53
6349;BME280;3207;42.648;23.406;2022-11-09T09:26:08;100280.28;;;34.61;24.67
6349;BME280;3207;42.648;23.406;2022-11-09T09:28:36;100280.41;;;34.81;24.02
6349;BME280;3207;42.648;23.406;2022-11-09T09:31:03;100277.72;;;35.74;23.20
6349;BME280;3207;42.648;23.406;2022-11-09T09:33:30;100272.78;;;36.73;21.66
6349;BME280;3207;42.648;23.406;2022-11-09T09:35:57;100273.94;;;36.01;22.22
6349;BME280;3207;42.648;23.406;2022-11-09T09:38:25;100277.56;;;34.66;22.82
6349;BME280;3207;42.648;23.406;2022-11-09T09:40:57;100273.47;;;33.14;24.71
6349;BME280;3207;42.648;23.406;2022-11-09T09:43:28;100270.59;;;31.77;26.20
6349;BME280;3207;42.648;23.406;2022-11-09T09:45:57;100278.63;;;30.45;27.19
6349;BME280;3207;42.648;23.406;2022-11-09T09:48:30;100237.34;;;28.90;29.04
6349;BME280;3207;42.648;23.406;2022-11-09T09:51:05;100255.56;;;28.01;30.93
6349;BME280;3207;42.648;23.406;2022-11-09T09:53:41;100256.34;;;27.39;32.07
6349;BME280;3207;42.648;23.406;2022-11-09T09:56:10;100252.44;;;26.77;33.26
6349;BME280;3207;42.648;23.406;2022-11-09T09:58:43;100254.97;;;26.19;34.16
6349;BME280;3207;42.648;23.406;2022-11-09T10:01:15;100248.13;;;25.64;34.84
6349;BME280;3207;42.648;23.406;2022-11-09T10:03:42;100246.94;;;25.12;36.31
6349;BME280;3207;42.648;23.406;2022-11-09T10:06:23;100243.84;;;24.68;37.45
6349;BME280;3207;42.648;23.406;2022-11-09T10:08:58;100231.66;;;24.31;38.48
6349;BME280;3207;42.648;23.406;2022-11-09T10:11:33;100223.44;;;24.04;39.15
6349;BME280;3207;42.648;23.406;2022-11-09T10:16:51;100231.06;;;27.60;35.24
6349;BME280;3207;42.648;23.406;2022-11-09T10:19:29;100229.66;;;31.28;29.60
6349;BME280;3207;42.648;23.406;2022-11-09T10:22:04;100230.81;;;33.04;26.62
6349;BME280;3207;42.648;23.406;2022-11-09T10:24:42;100224.72;;;32.92;26.51
6349;BME280;3207;42.648;23.406;2022-11-09T10:27:24;100203.13;;;32.37;26.36
6349;BME280;3207;42.648;23.406;2022-11-09T10:29:53;100223.88;;;33.35;25.28
6349;BME280;3207;42.648;23.406;2022-11-09T10:32:22;100229.00;;;35.68;22.94
6349;BME280;3207;42.648;23.406;2022-11-09T10:34:53;100231.72;;;37.91;20.95
6349;BME280;3207;42.648;23.406;2022-11-09T10:37:24;100237.28;;;39.48;19.27
6349;BME280;3207;42.648;23.406;2022-11-09T10:39:58;100236.03;;;40.51;18.38
6349;BME280;3207;42.648;23.406;2022-11-09T10:42:27;100232.66;;;41.45;17.68
6349;BME280;3207;42.648;23.406;2022-11-09T10:44:54;100232.47;;;42.09;16.91
6349;BME280;3207;42.648;23.406;2022-11-09T10:47:22;100236.25;;;42.61;16.48
6349;BME280;3207;42.648;23.406;2022-11-09T10:50:06;100229.94;;;43.26;16.08
6349;BME280;3207;42.648;23.406;2022-11-09T10:52:34;100233.47;;;43.00;16.14
6349;BME280;3207;42.648;23.406;2022-11-09T10:55:18;100221.69;;;43.17;15.92
6349;BME280;3207;42.648;23.406;2022-11-09T10:57:54;100226.47;;;43.89;15.60
6349;BME280;3207;42.648;23.406;2022-11-09T11:00:22;100226.00;;;44.34;14.89
6349;BME280;3207;42.648;23.406;2022-11-09T11:02:50;100211.97;;;44.56;14.56
6349;BME280;3207;42.648;23.406;2022-11-09T11:05:35;100218.28;;;45.07;14.72
6349;BME280;3207;42.648;23.406;2022-11-09T11:08:21;100216.22;;;45.45;14.19
6349;BME280;3207;42.648;23.406;2022-11-09T11:10:48;100201.06;;;45.51;14.51
6349;BME280;3207;42.648;23.406;2022-11-09T11:13:22;100207.53;;;45.35;14.69
6349;BME280;3207;42.648;23.406;2022-11-09T11:15:50;100200.25;;;45.09;14.62
6349;BME280;3207;42.648;23.406;2022-11-09T11:18:22;100195.16;;;44.40;15.40
6349;BME280;3207;42.648;23.406;2022-11-09T11:21:10;100193.16;;;43.65;15.83
6349;BME280;3207;42.648;23.406;2022-11-09T11:23:38;100153.16;;;42.90;16.23
6349;BME280;3207;42.648;23.406;2022-11-09T11:26:19;100197.28;;;42.67;16.65
6349;BME280;3207;42.648;23.406;2022-11-09T11:28:51;100184.53;;;41.92;17.68
6349;BME280;3207;42.648;23.406;2022-11-09T11:31:20;100173.25;;;41.27;18.14
6349;BME280;3207;42.648;23.406;2022-11-09T11:33:48;100176.97;;;40.32;18.82
6349;BME280;3207;42.648;23.406;2022-11-09T11:36:21;100169.19;;;39.09;19.63
6349;BME280;3207;42.648;23.406;2022-11-09T11:38:57;100168.25;;;37.76;21.08
6349;BME280;3207;42.648;23.406;2022-11-09T11:41:47;100157.91;;;36.30;22.95
6349;BME280;3207;42.648;23.406;2022-11-09T11:44:33;100150.44;;;34.68;24.31
6349;BME280;3207;42.648;23.406;2022-11-09T11:47:09;100165.16;;;33.51;26.32
6349;BME280;3207;42.648;23.406;2022-11-09T11:50:07;100162.50;;;32.37;27.48
6349;BME280;3207;42.648;23.406;2022-11-09T11:52:50;100152.28;;;31.22;29.24
6349;BME280;3207;42.648;23.406;2022-11-09T11:55:29;100143.47;;;30.46;30.83
6349;BME280;3207;42.648;23.406;2022-11-09T11:58:08;100135.75;;;29.80;32.25
6349;BME280;3207;42.648;23.406;2022-11-09T12:00:46;100142.97;;;29.14;33.67
6349;BME280;3207;42.648;23.406;2022-11-09T12:03:37;100132.25;;;28.48;34.97
6349;BME280;3207;42.648;23.406;2022-11-09T12:09:21;100118.53;;;27.70;37.18
6349;BME280;3207;42.648;23.406;2022-11-09T12:12:10;100113.94;;;27.52;37.75
6349;BME280;3207;42.648;23.406;2022-11-09T12:14:48;100111.75;;;27.36;38.44
6349;BME280;3207;42.648;23.406;2022-11-09T12:17:21;100104.47;;;27.18;39.13
6349;BME280;3207;42.648;23.406;2022-11-09T12:20:02;100112.78;;;27.10;39.76
6349;BME280;3207;42.648;23.406;2022-11-09T12:22:39;100109.56;;;26.95;40.32
6349;BME280;3207;42.648;23.406;2022-11-09T12:25:13;100115.38;;;26.85;40.74
6349;BME280;3207;42.648;23.406;2022-11-09T12:27:50;100097.66;;;26.78;40.71
6349;BME280;3207;42.648;23.406;2022-11-09T12:30:24;100108.88;;;26.68;41.08
6349;BME280;3207;42.648;23.406;2022-11-09T12:32:57;100108.31;;;26.53;41.01
6349;BME280;3207;42.648;23.406;2022-11-09T12:35:29;100104.47;;;26.36;41.87
6349;BME280;3207;42.648;23.406;2022-11-09T12:38:02;100109.03;;;26.15;42.30
6349;BME280;3207;42.648;23.406;2022-11-09T12:40:34;100080.22;;;25.78;42.86
6349;BME280;3207;42.648;23.406;2022-11-09T12:43:11;100093.63;;;25.58;43.40
6349;BME280;3207;42.648;23.406;2022-11-09T12:45:40;100096.94;;;25.40;44.37
6349;BME280;3207;42.648;23.406;2022-11-09T12:48:14;100097.94;;;25.26;44.54
6349;BME280;3207;42.648;23.406;2022-11-09T12:50:45;100111.91;;;25.15;44.85
6349;BME280;3207;42.648;23.406;2022-11-09T12:53:15;100101.03;;;25.10;45.94
6349;BME280;3207;42.648;23.406;2022-11-09T12:55:45;100111.50;;;25.11;46.15
6349;BME280;3207;42.648;23.406;2022-11-09T12:58:23;100110.66;;;25.04;46.05
6349;BME280;3207;42.648;23.406;2022-11-09T13:00:54;100101.59;;;25.05;45.81
6349;BME280;3207;42.648;23.406;2022-11-09T13:03:23;100108.41;;;25.08;46.52
6349;BME280;3207;42.648;23.406;2022-11-09T13:06:15;100106.97;;;25.12;46.46
6349;BME280;3207;42.648;23.406;2022-11-09T13:08:57;100114.41;;;25.10;46.25
6349;BME280;3207;42.648;23.406;2022-11-09T13:11:33;100112.75;;;25.15;46.10
6349;BME280;3207;42.648;23.406;2022-11-09T13:14:35;100108.38;;;25.01;46.46
6349;BME280;3207;42.648;23.406;2022-11-09T13:23:27;100116.31;;;24.68;47.64
6349;BME280;3207;42.648;23.406;2022-11-09T13:25:55;100117.16;;;24.75;47.94